METAR Data
IDs: Format: Raw Decoded Include TAF

Data at: 2159 UTC 22 Sep 2020

KETB 222155Z AUTO 25003KT 10SM CLR 24/13 A3007 RMK AO2
KETB 222135Z AUTO 24004KT 10SM CLR 25/13 A3007 RMK AO2
KETB 222115Z AUTO 23005KT 10SM CLR 25/13 A3008 RMK AO2
KETB 222055Z AUTO 26007KT 10SM CLR 25/13 A3008 RMK AO2
KETB 222035Z AUTO 22003KT 10SM CLR 25/14 A3008 RMK AO2
KETB 222015Z AUTO 28005KT 10SM CLR 25/13 A3009 RMK AO2
KETB 221955Z AUTO 28005KT 10SM CLR 25/13 A3010 RMK AO2
KETB 221935Z AUTO 23005KT 10SM CLR 25/14 A3010 RMK AO2
KETB 221915Z AUTO 26005KT 10SM CLR 24/14 A3010 RMK AO2
KETB 221855Z AUTO 26006KT 10SM CLR 24/13 A3011 RMK AO2
KETB 221835Z AUTO 26006KT 10SM CLR 23/14 A3012 RMK AO2
KETB 221815Z AUTO 24007KT 10SM CLR 23/13 A3013 RMK AO2
KETB 221755Z AUTO 24005KT 10SM CLR 23/13 A3014 RMK AO2
KETB 221735Z AUTO 25006KT 10SM CLR 23/13 A3015 RMK AO2
KETB 221715Z AUTO 27007KT 10SM CLR 22/13 A3015 RMK AO2
KETB 221655Z AUTO 27005KT 10SM CLR 22/13 A3015 RMK AO2
KETB 221635Z AUTO 25006KT 10SM CLR 21/13 A3016 RMK AO2
KETB 221615Z AUTO 27007KT 10SM CLR 21/12 A3016 RMK AO2
KETB 221555Z AUTO 25007KT 10SM CLR 21/13 A3017 RMK AO2
KETB 221535Z AUTO 27006KT 10SM CLR 20/12 A3017 RMK AO2
KETB 221515Z AUTO 25008KT 200V270 10SM CLR 18/12 A3017 RMK AO2
KETB 221455Z AUTO 26009KT 10SM CLR 19/12 A3018 RMK AO2
KETB 221435Z AUTO 27003KT 10SM CLR 18/13 A3019 RMK AO2
KETB 221415Z AUTO 23004KT 10SM CLR 16/12 A3018 RMK AO2
KETB 221355Z AUTO 25004KT 10SM CLR 15/11 A3019 RMK AO2
KETB 221335Z AUTO 25005KT 10SM CLR 15/11 A3019 RMK AO2
KETB 221315Z AUTO 25006KT 10SM -DZ SCT055 SCT095 SCT110 15/11 A3019 RMK AO2
KETB 221255Z AUTO 21005KT 10SM -RA SCT050 SCT055 BKN110 15/10 A3018 RMK AO2
KETB 221235Z AUTO 22003KT 10SM BKN110 15/10 A3019 RMK AO2
KETB 221215Z AUTO 20003KT 10SM SCT120 15/10 A3019 RMK AO2
KETB 221155Z AUTO 21004KT 10SM CLR 15/10 A3019 RMK AO2
KETB 221135Z AUTO 21004KT 10SM CLR 14/10 A3019 RMK AO2
KETB 221115Z AUTO 20003KT 10SM CLR 14/10 A3018 RMK AO2
KETB 221055Z AUTO 22003KT 10SM CLR 13/09 A3019 RMK AO2
KETB 221035Z AUTO 22004KT 10SM CLR 13/09 A3019 RMK AO2
KETB 221015Z AUTO 22003KT 10SM SCT120 13/09 A3019 RMK AO2
KETB 220955Z AUTO 23004KT 10SM CLR 13/09 A3019 RMK AO2
KETB 220935Z AUTO 23003KT 10SM CLR 12/10 A3020 RMK AO2
KETB 220915Z AUTO 22004KT 10SM SCT120 11/11 A3020 RMK AO2
KETB 220855Z AUTO 20003KT 10SM SCT120 12/10 A3021 RMK AO2
KETB 220835Z AUTO 00000KT 10SM SCT090 BKN120 12/11 A3021 RMK AO2
KETB 220815Z AUTO 00000KT 10SM SCT120 12/11 A3022 RMK AO2
KETB 220755Z AUTO 00000KT 10SM SCT120 12/10 A3022 RMK AO2
KETB 220735Z AUTO 00000KT 10SM SCT120 12/11 A3022 RMK AO2
KETB 220715Z AUTO 00000KT 10SM CLR 12/10 A3022 RMK AO2
KETB 220655Z AUTO 00000KT 10SM CLR 12/11 A3022 RMK AO2
KETB 220635Z AUTO 00000KT 10SM CLR 12/11 A3022 RMK AO2
KETB 220615Z AUTO 00000KT 10SM CLR 12/10 A3023 RMK AO2
KETB 220555Z AUTO 00000KT 10SM CLR 12/10 A3022 RMK AO2
KETB 220535Z AUTO 00000KT 10SM CLR 12/10 A3022 RMK AO2
KETB 220515Z AUTO 00000KT 10SM CLR 14/10 A3023 RMK AO2
KETB 220455Z AUTO 23003KT 10SM CLR 13/10 A3023 RMK AO2
KETB 220435Z AUTO 22003KT 10SM CLR 14/10 A3022 RMK AO2
KETB 220415Z AUTO 20004KT 10SM CLR 14/10 A3023 RMK AO2
KETB 220355Z AUTO 21005KT 10SM CLR 13/10 A3023 RMK AO2
KETB 220335Z AUTO 19004KT 10SM CLR 13/10 A3023 RMK AO2
KETB 220315Z AUTO 00000KT 10SM CLR 13/10 A3023 RMK AO2
KETB 220255Z AUTO 17003KT 10SM CLR 13/10 A3022 RMK AO2
KETB 220235Z AUTO 00000KT 10SM CLR 13/11 A3023 RMK AO2
KETB 220215Z AUTO 00000KT 10SM CLR 14/11 A3023 RMK AO2
KETB 220155Z AUTO 00000KT 10SM CLR 13/11 A3023 RMK AO2
KETB 220135Z AUTO 00000KT 10SM CLR 14/11 A3023 RMK AO2
KETB 220115Z AUTO 00000KT 10SM CLR 15/11 A3024 RMK AO2
KETB 220055Z AUTO 00000KT 10SM CLR 15/12 A3023 RMK AO2
KETB 220035Z AUTO 16003KT 10SM CLR 15/12 A3023 RMK AO2
KETB 220015Z AUTO 15004KT 10SM CLR 15/12 A3023 RMK AO2
KETB 212355Z AUTO 15003KT 10SM CLR 16/12 A3023 RMK AO2
KETB 212335Z AUTO 15003KT 10SM CLR 16/12 A3024 RMK AO2
KETB 212315Z AUTO 15004KT 10SM CLR 17/11 A3024 RMK AO2
KETB 212255Z AUTO 15005KT 10SM CLR 18/11 A3024 RMK AO2
KETB 212235Z AUTO 14004KT 10SM CLR 18/11 A3024 RMK AO2
KETB 212215Z AUTO 12006KT 10SM CLR 20/11 A3024 RMK AO2
KETB 212155Z AUTO 14006KT 10SM CLR 20/10 A3024 RMK AO2
KETB 212135Z AUTO 17005KT 10SM CLR 21/05 A3025 RMK AO2
KETB 212115Z AUTO 20008KT 10SM CLR 21/05 A3025 RMK AO2
KETB 212055Z AUTO 19008KT 10SM CLR 22/05 A3026 RMK AO2
KETB 212035Z AUTO 20008KT 10SM CLR 22/04 A3026 RMK AO2
KETB 212015Z AUTO 19007KT 10SM CLR 22/05 A3027 RMK AO2
KETB 211955Z AUTO 20008KT 10SM CLR 22/05 A3028 RMK AO2
KETB 211935Z AUTO 20006KT 10SM CLR 22/06 A3028 RMK AO2
KETB 211915Z AUTO 20006KT 10SM CLR 21/05 A3029 RMK AO2
KETB 211855Z AUTO 17008KT 10SM CLR 21/06 A3030 RMK AO2
KETB 211835Z AUTO 22006KT 10SM CLR 21/06 A3031 RMK AO2
KETB 211815Z AUTO 21008KT 10SM CLR 21/05 A3032 RMK AO2
KETB 211755Z AUTO 19008KT 10SM CLR 21/05 A3033 RMK AO2
KETB 211735Z AUTO 21009KT 10SM CLR 21/05 A3034 RMK AO2
KETB 211715Z AUTO 22010KT 10SM CLR 20/05 A3034 RMK AO2
KETB 211655Z AUTO 21013KT 10SM CLR 20/05 A3035 RMK AO2
KETB 211635Z AUTO 21010G16KT 10SM CLR 19/05 A3035 RMK AO2
KETB 211615Z AUTO 22008KT 10SM CLR 19/05 A3036 RMK AO2
KETB 211555Z AUTO 20007KT 10SM CLR 18/05 A3037 RMK AO2
KETB 211535Z AUTO 21007KT 10SM CLR 17/05 A3037 RMK AO2
KETB 211515Z AUTO 20008KT 10SM CLR 17/06 A3038 RMK AO2
KETB 211455Z AUTO 19004KT 10SM CLR 16/06 A3038 RMK AO2
KETB 211435Z AUTO 19003KT 10SM CLR 15/07 A3038 RMK AO2
KETB 211415Z AUTO 19005KT 10SM CLR 13/07 A3037 RMK AO2
KETB 211355Z AUTO 19005KT 10SM CLR 13/07 A3037 RMK AO2
KETB 211335Z AUTO 19005KT 10SM CLR 12/07 A3037 RMK AO2
KETB 211315Z AUTO 20004KT 10SM CLR 11/07 A3038 RMK AO2
KETB 211255Z AUTO 18004KT 10SM CLR 10/07 A3037 RMK AO2
KETB 211235Z AUTO 18005KT 10SM CLR 10/07 A3037 RMK AO2
KETB 211215Z AUTO 18004KT 10SM CLR 09/07 A3037 RMK AO2
KETB 211155Z AUTO 17004KT 10SM CLR 09/07 A3037 RMK AO2
KETB 211135Z AUTO 19004KT 10SM CLR 08/08 A3037 RMK AO2
KETB 211115Z AUTO 00000KT 10SM CLR 09/08 A3036 RMK AO2
KETB 211055Z AUTO 00000KT 10SM CLR 09/08 A3036 RMK AO2
KETB 211035Z AUTO 00000KT 10SM CLR 08/07 A3036 RMK AO2
KETB 211015Z AUTO 00000KT 10SM CLR 08/08 A3036 RMK AO2